sensor_id;sensor_type;location;lat;lon;timestamp;pressure;altitude;pressure_sealevel;temperature;humidity
21433;BME280;18592;49.708;10.900;2024-01-15T00:01:45;97375.75;;;7.80;61.76
21433;BME280;18592;49.708;10.900;2024-01-15T00:03:46;97363.84;;;7.81;61.45
21433;BME280;18592;49.708;10.900;2024-01-15T00:05:48;97350.78;;;7.78;61.39
21433;BME280;18592;49.708;10.900;2024-01-15T00:07:50;97358.94;;;7.78;61.13
21433;BME280;18592;49.708;10.900;2024-01-15T00:09:51;97362.16;;;7.75;61.18
21433;BME280;18592;49.708;10.900;2024-01-15T00:11:53;97371.38;;;7.74;61.06
21433;BME280;18592;49.708;10.900;2024-01-15T00:13:54;97376.22;;;7.72;60.87
21433;BME280;18592;49.708;10.900;2024-01-15T00:15:56;97381.94;;;7.71;61.14
21433;BME280;18592;49.708;10.900;2024-01-15T00:17:58;97373.78;;;7.71;61.50
21433;BME280;18592;49.708;10.900;2024-01-15T00:19:59;97361.06;;;7.71;61.53
21433;BME280;18592;49.708;10.900;2024-01-15T00:22:01;97350.75;;;7.73;61.74
21433;BME280;18592;49.708;10.900;2024-01-15T00:24:03;97348.59;;;7.75;61.66
21433;BME280;18592;49.708;10.900;2024-01-15T00:26:04;97343.16;;;7.75;61.47
21433;BME280;18592;49.708;10.900;2024-01-15T00:28:08;97341.81;;;7.73;61.26
21433;BME280;18592;49.708;10.900;2024-01-15T00:30:10;97322.28;;;7.71;61.04
21433;BME280;18592;49.708;10.900;2024-01-15T00:32:12;97327.69;;;7.71;60.75
21433;BME280;18592;49.708;10.900;2024-01-15T00:34:14;97322.78;;;7.67;60.44
21433;BME280;18592;49.708;10.900;2024-01-15T00:36:15;97327.13;;;7.63;60.29
21433;BME280;18592;49.708;10.900;2024-01-15T00:38:18;97319.75;;;7.59;60.34
21433;BME280;18592;49.708;10.900;2024-01-15T00:40:19;97347.41;;;7.56;60.37
21433;BME280;18592;49.708;10.900;2024-01-15T00:42:21;97342.22;;;7.54;61.00
21433;BME280;18592;49.708;10.900;2024-01-15T00:44:22;97343.31;;;7.53;61.08
21433;BME280;18592;49.708;10.900;2024-01-15T00:46:24;97344.13;;;7.54;61.42
21433;BME280;18592;49.708;10.900;2024-01-15T00:48:25;97341.16;;;7.55;61.62
21433;BME280;18592;49.708;10.900;2024-01-15T00:50:27;97330.88;;;7.57;61.72
21433;BME280;18592;49.708;10.900;2024-01-15T00:52:29;97331.41;;;7.59;61.88
21433;BME280;18592;49.708;10.900;2024-01-15T00:54:30;97329.25;;;7.61;61.30
21433;BME280;18592;49.708;10.900;2024-01-15T00:56:32;97331.97;;;7.61;62.01
21433;BME280;18592;49.708;10.900;2024-01-15T00:58:33;97339.84;;;7.63;62.22
21433;BME280;18592;49.708;10.900;2024-01-15T01:00:35;97336.63;;;7.66;62.69
21433;BME280;18592;49.708;10.900;2024-01-15T01:02:36;97338.00;;;7.68;62.80
21433;BME280;18592;49.708;10.900;2024-01-15T01:04:38;97336.38;;;7.73;62.97
21433;BME280;18592;49.708;10.900;2024-01-15T01:06:42;97336.13;;;7.74;62.61
21433;BME280;18592;49.708;10.900;2024-01-15T01:08:44;97331.25;;;7.76;62.55
21433;BME280;18592;49.708;10.900;2024-01-15T01:10:45;97334.53;;;7.78;62.59
21433;BME280;18592;49.708;10.900;2024-01-15T01:12:47;97335.34;;;7.79;62.85
21433;BME280;18592;49.708;10.900;2024-01-15T01:14:49;97332.34;;;7.80;62.28
21433;BME280;18592;49.708;10.900;2024-01-15T01:16:50;97326.94;;;7.80;61.85
21433;BME280;18592;49.708;10.900;2024-01-15T01:18:52;97318.78;;;7.80;62.08
21433;BME280;18592;49.708;10.900;2024-01-15T01:20:54;97318.78;;;7.80;62.19
21433;BME280;18592;49.708;10.900;2024-01-15T01:22:55;97320.69;;;7.80;61.93
21433;BME280;18592;49.708;10.900;2024-01-15T01:24:57;97318.78;;;7.80;62.00
21433;BME280;18592;49.708;10.900;2024-01-15T01:26:58;97324.75;;;7.82;62.36
21433;BME280;18592;49.708;10.900;2024-01-15T01:29:00;97324.75;;;7.82;62.46
21433;BME280;18592;49.708;10.900;2024-01-15T01:31:01;97328.81;;;7.80;62.03
21433;BME280;18592;49.708;10.900;2024-01-15T01:33:03;97324.22;;;7.80;62.39
21433;BME280;18592;49.708;10.900;2024-01-15T01:35:05;97316.06;;;7.80;62.12
21433;BME280;18592;49.708;10.900;2024-01-15T01:37:07;97327.75;;;7.81;62.10
21433;BME280;18592;49.708;10.900;2024-01-15T01:39:08;97323.38;;;7.80;62.34
21433;BME280;18592;49.708;10.900;2024-01-15T01:41:10;97321.50;;;7.80;62.92
21433;BME280;18592;49.708;10.900;2024-01-15T01:43:12;97308.47;;;7.82;62.47
21433;BME280;18592;49.708;10.900;2024-01-15T01:45:13;97302.50;;;7.80;62.34
21433;BME280;18592;49.708;10.900;2024-01-15T01:47:15;97316.91;;;7.81;61.90
21433;BME280;18592;49.708;10.900;2024-01-15T01:49:17;97325.31;;;7.79;61.72
21433;BME280;18592;49.708;10.900;2024-01-15T01:51:20;97320.97;;;7.78;61.34
21433;BME280;18592;49.708;10.900;2024-01-15T01:53:23;97317.69;;;7.76;61.54
21433;BME280;18592;49.708;10.900;2024-01-15T01:55:27;97314.44;;;7.74;61.56
21433;BME280;18592;49.708;10.900;2024-01-15T01:57:32;97323.63;;;7.73;61.53
21433;BME280;18592;49.708;10.900;2024-01-15T01:59:35;97317.66;;;7.71;61.59
21433;BME280;18592;49.708;10.900;2024-01-15T02:01:38;97314.69;;;7.73;62.05
21433;BME280;18592;49.708;10.900;2024-01-15T02:03:40;97315.50;;;7.73;61.76
21433;BME280;18592;49.708;10.900;2024-01-15T02:05:43;97315.50;;;7.73;61.82
21433;BME280;18592;49.708;10.900;2024-01-15T02:07:46;97308.19;;;7.74;61.67
21433;BME280;18592;49.708;10.900;2024-01-15T02:09:47;97313.34;;;7.75;62.13
21433;BME280;18592;49.708;10.900;2024-01-15T02:11:49;97319.31;;;7.77;62.09
21433;BME280;18592;49.708;10.900;2024-01-15T02:13:51;97307.09;;;7.75;61.72
21433;BME280;18592;49.708;10.900;2024-01-15T02:15:53;97308.44;;;7.72;61.35
21433;BME280;18592;49.708;10.900;2024-01-15T02:18:06;97310.31;;;7.72;61.63
21433;BME280;18592;49.708;10.900;2024-01-15T02:20:09;97303.84;;;7.73;61.66
21433;BME280;18592;49.708;10.900;2024-01-15T02:22:11;97306.31;;;7.74;61.82
21433;BME280;18592;49.708;10.900;2024-01-15T02:24:13;97317.16;;;7.74;61.31
21433;BME280;18592;49.708;10.900;2024-01-15T02:26:14;97311.44;;;7.71;61.55
21433;BME280;18592;49.708;10.900;2024-01-15T02:28:17;97309.53;;;7.71;61.58
21433;BME280;18592;49.708;10.900;2024-01-15T02:30:19;97313.03;;;7.72;61.35
21433;BME280;18592;49.708;10.900;2024-01-15T02:32:21;97314.69;;;7.73;61.32
21433;BME280;18592;49.708;10.900;2024-01-15T02:34:22;97310.31;;;7.72;61.86
21433;BME280;18592;49.708;10.900;2024-01-15T02:36:24;97307.63;;;7.72;61.43
21433;BME280;18592;49.708;10.900;2024-01-15T02:38:26;97303.00;;;7.72;61.40
21433;BME280;18592;49.708;10.900;2024-01-15T02:40:27;97303.00;;;7.72;61.60
21433;BME280;18592;49.708;10.900;2024-01-15T02:42:29;97305.47;;;7.74;61.82
21433;BME280;18592;49.708;10.900;2024-01-15T02:44:30;97308.19;;;7.74;61.60
21433;BME280;18592;49.708;10.900;2024-01-15T02:46:32;97304.66;;;7.73;61.42
21433;BME280;18592;49.708;10.900;2024-01-15T02:48:33;97309.00;;;7.74;61.66
21433;BME280;18592;49.708;10.900;2024-01-15T02:50:38;97309.25;;;7.73;62.28
21433;BME280;18592;49.708;10.900;2024-01-15T02:52:39;97310.91;;;7.74;61.70
21433;BME280;18592;49.708;10.900;2024-01-15T02:54:41;97317.94;;;7.75;61.38
21433;BME280;18592;49.708;10.900;2024-01-15T02:56:42;97312.78;;;7.73;61.82
21433;BME280;18592;49.708;10.900;2024-01-15T02:58:44;97315.22;;;7.75;62.08
21433;BME280;18592;49.708;10.900;2024-01-15T03:00:45;97321.22;;;7.77;62.09
21433;BME280;18592;49.708;10.900;2024-01-15T03:02:48;97317.41;;;7.78;62.04
21433;BME280;18592;49.708;10.900;2024-01-15T03:04:51;97329.91;;;7.79;62.11
21433;BME280;18592;49.708;10.900;2024-01-15T03:06:52;97320.97;;;7.78;61.97
21433;BME280;18592;49.708;10.900;2024-01-15T03:08:54;97312.81;;;7.78;61.74
21433;BME280;18592;49.708;10.900;2024-01-15T03:10:56;97312.28;;;7.81;62.05
21433;BME280;18592;49.708;10.900;2024-01-15T03:12:57;97310.69;;;7.85;62.09
21433;BME280;18592;49.708;10.900;2024-01-15T03:14:59;97311.81;;;7.89;62.32
21433;BME280;18592;49.708;10.900;2024-01-15T03:17:00;97297.69;;;7.92;62.22
21433;BME280;18592;49.708;10.900;2024-01-15T03:19:02;97309.34;;;7.93;61.91
21433;BME280;18592;49.708;10.900;2024-01-15T03:21:04;97294.97;;;7.92;62.54
21433;BME280;18592;49.708;10.900;2024-01-15T03:23:06;97289.28;;;7.94;62.00
21433;BME280;18592;49.708;10.900;2024-01-15T03:25:07;97283.06;;;7.93;61.93
21433;BME280;18592;49.708;10.900;2024-01-15T03:27:09;97283.06;;;7.93;61.88
21433;BME280;18592;49.708;10.900;2024-01-15T03:29:11;97274.91;;;7.93;62.08
21433;BME280;18592;49.708;10.900;2024-01-15T03:31:12;97286.31;;;7.95;62.41
21433;BME280;18592;49.708;10.900;2024-01-15T03:33:14;97280.63;;;7.97;61.91
21433;BME280;18592;49.708;10.900;2024-01-15T03:35:15;97283.34;;;7.97;61.88
21433;BME280;18592;49.708;10.900;2024-01-15T03:37:17;97271.69;;;7.96;61.94
21433;BME280;18592;49.708;10.900;2024-01-15T03:39:19;97274.38;;;7.96;61.74
21433;BME280;18592;49.708;10.900;2024-01-15T03:41:20;97264.59;;;7.95;61.65
21433;BME280;18592;49.708;10.900;2024-01-15T03:43:22;97267.84;;;7.97;61.84
21433;BME280;18592;49.708;10.900;2024-01-15T03:45:23;97273.28;;;7.97;61.75
21433;BME280;18592;49.708;10.900;2024-01-15T03:47:26;97272.22;;;7.98;62.02
21433;BME280;18592;49.708;10.900;2024-01-15T03:49:27;97273.03;;;7.99;61.68
21433;BME280;18592;49.708;10.900;2024-01-15T03:51:29;97273.59;;;8.01;61.87
21433;BME280;18592;49.708;10.900;2024-01-15T03:53:31;97268.97;;;8.01;61.93
21433;BME280;18592;49.708;10.900;2024-01-15T03:55:32;97266.81;;;8.03;61.91
21433;BME280;18592;49.708;10.900;2024-01-15T03:57:34;97276.31;;;8.06;61.89
21433;BME280;18592;49.708;10.900;2024-01-15T03:59:35;97277.13;;;8.06;61.93
21433;BME280;18592;49.708;10.900;2024-01-15T04:01:37;97270.88;;;8.06;61.70
21433;BME280;18592;49.708;10.900;2024-01-15T04:03:38;97280.38;;;8.08;61.71
21433;BME280;18592;49.708;10.900;2024-01-15T04:05:40;97267.88;;;8.07;61.75
21433;BME280;18592;49.708;10.900;2024-01-15T04:07:42;97257.88;;;8.08;61.71
21433;BME280;18592;49.708;10.900;2024-01-15T04:09:43;97267.09;;;8.07;61.23
21433;BME280;18592;49.708;10.900;2024-01-15T04:11:45;97261.09;;;8.05;60.89
21433;BME280;18592;49.708;10.900;2024-01-15T04:13:46;97255.94;;;8.03;60.81
21433;BME280;18592;49.708;10.900;2024-01-15T04:15:48;97258.94;;;8.02;61.24
21433;BME280;18592;49.708;10.900;2024-01-15T04:17:49;97245.63;;;8.00;60.87
21433;BME280;18592;49.708;10.900;2024-01-15T04:19:51;97254.88;;;7.99;61.23
21433;BME280;18592;49.708;10.900;2024-01-15T04:21:52;97249.97;;;7.96;60.96
21433;BME280;18592;49.708;10.900;2024-01-15T04:23:54;97258.09;;;7.96;61.18
21433;BME280;18592;49.708;10.900;2024-01-15T04:25:55;97257.56;;;7.94;60.97
21433;BME280;18592;49.708;10.900;2024-01-15T04:27:57;97246.72;;;7.94;60.58
21433;BME280;18592;49.708;10.900;2024-01-15T04:29:58;97248.59;;;7.94;60.66
21433;BME280;18592;49.708;10.900;2024-01-15T04:32:00;97254.03;;;7.94;60.92
21433;BME280;18592;49.708;10.900;2024-01-15T04:34:01;97247.78;;;7.93;60.85
21433;BME280;18592;49.708;10.900;2024-01-15T04:36:06;97244.53;;;7.91;60.80
21433;BME280;18592;49.708;10.900;2024-01-15T04:38:08;97234.50;;;7.92;60.47
21433;BME280;18592;49.708;10.900;2024-01-15T04:40:10;97240.16;;;7.90;60.33
21433;BME280;18592;49.708;10.900;2024-01-15T04:42:12;97243.16;;;7.89;60.90
21433;BME280;18592;49.708;10.900;2024-01-15T04:44:13;97237.19;;;7.87;60.63
21433;BME280;18592;49.708;10.900;2024-01-15T04:46:15;97232.56;;;7.87;60.82
21433;BME280;18592;49.708;10.900;2024-01-15T04:48:16;97239.63;;;7.88;61.06
21433;BME280;18592;49.708;10.900;2024-01-15T04:50:18;97241.53;;;7.88;60.83
21433;BME280;18592;49.708;10.900;2024-01-15T04:52:19;97237.19;;;7.87;60.76
21433;BME280;18592;49.708;10.900;2024-01-15T04:54:21;97249.09;;;7.86;60.76
21433;BME280;18592;49.708;10.900;2024-01-15T04:56:23;97250.19;;;7.85;60.80
21433;BME280;18592;49.708;10.900;2024-01-15T04:58:24;97247.22;;;7.86;60.88
21433;BME280;18592;49.708;10.900;2024-01-15T05:00:28;97243.69;;;7.86;60.79
21433;BME280;18592;49.708;10.900;2024-01-15T05:02:29;97237.19;;;7.87;61.18
21433;BME280;18592;49.708;10.900;2024-01-15T05:04:31;97232.84;;;7.86;60.87
21433;BME280;18592;49.708;10.900;2024-01-15T05:06:34;97238.81;;;7.88;61.03
21433;BME280;18592;49.708;10.900;2024-01-15T05:08:35;97229.84;;;7.87;61.06
21433;BME280;18592;49.708;10.900;2024-01-15T05:10:37;97226.59;;;7.90;61.59
21433;BME280;18592;49.708;10.900;2024-01-15T05:12:38;97226.34;;;7.92;61.55
21433;BME280;18592;49.708;10.900;2024-01-15T05:14:40;97225.00;;;7.94;61.20
21433;BME280;18592;49.708;10.900;2024-01-15T05:16:48;97228.50;;;7.95;61.24
21433;BME280;18592;49.708;10.900;2024-01-15T05:18:50;97225.00;;;7.94;61.25
21433;BME280;18592;49.708;10.900;2024-01-15T05:20:52;97232.03;;;7.95;60.83
21433;BME280;18592;49.708;10.900;2024-01-15T05:22:54;97237.47;;;7.95;60.97
21433;BME280;18592;49.708;10.900;2024-01-15T05:24:55;97242.06;;;7.95;61.20
21433;BME280;18592;49.708;10.900;2024-01-15T05:26:57;97238.81;;;7.93;60.76
21433;BME280;18592;49.708;10.900;2024-01-15T05:28:58;97233.16;;;7.94;61.10
21433;BME280;18592;49.708;10.900;2024-01-15T05:31:00;97223.66;;;7.97;61.00
21433;BME280;18592;49.708;10.900;2024-01-15T05:33:02;97238.28;;;7.96;60.69
21433;BME280;18592;49.708;10.900;2024-01-15T05:35:04;97229.09;;;7.97;60.81
21433;BME280;18592;49.708;10.900;2024-01-15T05:37:06;97241.00;;;7.96;60.93
21433;BME280;18592;49.708;10.900;2024-01-15T05:39:07;97235.31;;;7.97;61.02
21433;BME280;18592;49.708;10.900;2024-01-15T05:41:09;97231.53;;;7.98;60.92
21433;BME280;18592;49.708;10.900;2024-01-15T05:43:11;97226.91;;;7.99;61.10
21433;BME280;18592;49.708;10.900;2024-01-15T05:45:12;97233.16;;;7.99;61.24
21433;BME280;18592;49.708;10.900;2024-01-15T05:47:14;97226.91;;;7.99;60.82
21433;BME280;18592;49.708;10.900;2024-01-15T05:49:15;97234.22;;;7.98;60.97
21433;BME280;18592;49.708;10.900;2024-01-15T05:51:17;97226.09;;;7.98;60.96
21433;BME280;18592;49.708;10.900;2024-01-15T05:53:19;97229.88;;;7.97;60.91
21433;BME280;18592;49.708;10.900;2024-01-15T05:55:20;97229.88;;;7.97;61.21
21433;BME280;18592;49.708;10.900;2024-01-15T05:57:22;97231.00;;;8.01;61.48
21433;BME280;18592;49.708;10.900;2024-01-15T05:59:26;97228.00;;;8.03;61.37
21433;BME280;18592;49.708;10.900;2024-01-15T06:01:28;97247.28;;;8.06;61.64
21433;BME280;18592;49.708;10.900;2024-01-15T06:03:30;97242.41;;;8.08;61.81
21433;BME280;18592;49.708;10.900;2024-01-15T06:05:31;97239.41;;;8.10;61.97
21433;BME280;18592;49.708;10.900;2024-01-15T06:07:34;97231.56;;;8.13;61.94
21433;BME280;18592;49.708;10.900;2024-01-15T06:09:47;97246.78;;;8.14;61.51
21433;BME280;18592;49.708;10.900;2024-01-15T06:11:48;97235.91;;;8.14;61.84
21433;BME280;18592;49.708;10.900;2024-01-15T06:13:50;97229.13;;;8.17;61.87
21433;BME280;18592;49.708;10.900;2024-01-15T06:15:52;97228.84;;;8.18;61.73
21433;BME280;18592;49.708;10.900;2024-01-15T06:17:55;97223.44;;;8.18;61.87
21433;BME280;18592;49.708;10.900;2024-01-15T06:19:57;97222.34;;;8.19;61.83
21433;BME280;18592;49.708;10.900;2024-01-15T06:21:59;97227.78;;;8.19;61.26
21433;BME280;18592;49.708;10.900;2024-01-15T06:24:01;97226.69;;;8.20;61.24
21433;BME280;18592;49.708;10.900;2024-01-15T06:26:05;97232.13;;;8.20;61.59
21433;BME280;18592;49.708;10.900;2024-01-15T06:28:07;97227.22;;;8.22;61.49
21433;BME280;18592;49.708;10.900;2024-01-15T06:30:09;97228.31;;;8.21;61.62
21433;BME280;18592;49.708;10.900;2024-01-15T06:32:11;97225.88;;;8.25;61.49
21433;BME280;18592;49.708;10.900;2024-01-15T06:34:15;97233.78;;;8.26;61.41
21433;BME280;18592;49.708;10.900;2024-01-15T06:36:16;97233.78;;;8.26;61.77
21433;BME280;18592;49.708;10.900;2024-01-15T06:38:18;97237.59;;;8.30;61.76
21433;BME280;18592;49.708;10.900;2024-01-15T06:40:20;97240.84;;;8.32;61.43
21433;BME280;18592;49.708;10.900;2024-01-15T06:42:21;97238.94;;;8.33;61.83
21433;BME280;18592;49.708;10.900;2024-01-15T06:44:23;97231.34;;;8.35;61.91
21433;BME280;18592;49.708;10.900;2024-01-15T06:46:25;97232.16;;;8.36;61.96
21433;BME280;18592;49.708;10.900;2024-01-15T06:48:26;97236.25;;;8.38;61.97
21433;BME280;18592;49.708;10.900;2024-01-15T06:50:28;97241.16;;;8.41;62.05
21433;BME280;18592;49.708;10.900;2024-01-15T06:52:29;97237.91;;;8.44;61.97
21433;BME280;18592;49.708;10.900;2024-01-15T06:54:31;97235.44;;;8.48;61.99
21433;BME280;18592;49.708;10.900;2024-01-15T06:56:33;97242.50;;;8.49;61.87
21433;BME280;18592;49.708;10.900;2024-01-15T06:58:34;97241.97;;;8.52;62.69
21433;BME280;18592;49.708;10.900;2024-01-15T07:00:36;97243.34;;;8.54;62.10
21433;BME280;18592;49.708;10.900;2024-01-15T07:02:37;97232.72;;;8.58;61.76
21433;BME280;18592;49.708;10.900;2024-01-15T07:04:39;97232.72;;;8.58;61.92
21433;BME280;18592;49.708;10.900;2024-01-15T07:06:44;97237.09;;;8.59;61.84
21433;BME280;18592;49.708;10.900;2024-01-15T07:08:45;97237.91;;;8.59;61.92
21433;BME280;18592;49.708;10.900;2024-01-15T07:10:47;97243.59;;;8.63;62.52
21433;BME280;18592;49.708;10.900;2024-01-15T07:12:48;97249.59;;;8.65;62.21
21433;BME280;18592;49.708;10.900;2024-01-15T07:14:50;97244.72;;;8.67;62.31
21433;BME280;18592;49.708;10.900;2024-01-15T07:16:57;97253.09;;;8.70;62.33
21433;BME280;18592;49.708;10.900;2024-01-15T07:18:58;97258.28;;;8.72;62.28
21433;BME280;18592;49.708;10.900;2024-01-15T07:21:00;97258.53;;;8.75;62.26
21433;BME280;18592;49.708;10.900;2024-01-15T07:23:02;97258.81;;;8.79;62.26
21433;BME280;18592;49.708;10.900;2024-01-15T07:25:05;97261.00;;;8.82;62.20
21433;BME280;18592;49.708;10.900;2024-01-15T07:27:08;97264.53;;;8.82;62.32
21433;BME280;18592;49.708;10.900;2024-01-15T07:29:10;97262.09;;;8.86;62.12
21433;BME280;18592;49.708;10.900;2024-01-15T07:31:12;97263.44;;;8.88;61.90
21433;BME280;18592;49.708;10.900;2024-01-15T07:33:13;97266.97;;;8.89;61.75
21433;BME280;18592;49.708;10.900;2024-01-15T07:35:16;97266.97;;;8.89;61.71
21433;BME280;18592;49.708;10.900;2024-01-15T07:37:18;97265.91;;;8.90;61.50
21433;BME280;18592;49.708;10.900;2024-01-15T07:39:19;97260.47;;;8.90;61.96
21433;BME280;18592;49.708;10.900;2024-01-15T07:41:21;97263.19;;;8.90;61.84
21433;BME280;18592;49.708;10.900;2024-01-15T07:43:22;97264.53;;;8.92;61.49
21433;BME280;18592;49.708;10.900;2024-01-15T07:45:24;97261.00;;;8.92;61.48
21433;BME280;18592;49.708;10.900;2024-01-15T07:47:26;97255.56;;;8.92;61.73
21433;BME280;18592;49.708;10.900;2024-01-15T07:49:27;97262.63;;;8.93;61.71
21433;BME280;18592;49.708;10.900;2024-01-15T07:51:29;97260.72;;;8.93;61.82
21433;BME280;18592;49.708;10.900;2024-01-15T07:53:30;97266.69;;;8.95;61.61
21433;BME280;18592;49.708;10.900;2024-01-15T07:55:32;97265.63;;;8.97;61.26
21433;BME280;18592;49.708;10.900;2024-01-15T07:57:33;97264.81;;;8.96;61.30
21433;BME280;18592;49.708;10.900;2024-01-15T07:59:35;97266.97;;;8.94;61.13
21433;BME280;18592;49.708;10.900;2024-01-15T08:01:37;97259.91;;;8.93;61.29
21433;BME280;18592;49.708;10.900;2024-01-15T08:03:38;97266.44;;;8.92;61.53
21433;BME280;18592;49.708;10.900;2024-01-15T08:05:40;97261.81;;;8.92;60.85
21433;BME280;18592;49.708;10.900;2024-01-15T08:07:42;97262.63;;;8.93;61.07
21433;BME280;18592;49.708;10.900;2024-01-15T08:09:43;97261.00;;;8.92;60.83
21433;BME280;18592;49.708;10.900;2024-01-15T08:11:45;97260.47;;;8.90;61.16
21433;BME280;18592;49.708;10.900;2024-01-15T08:13:46;97264.25;;;8.89;60.66
21433;BME280;18592;49.708;10.900;2024-01-15T08:15:48;97266.44;;;8.87;60.90
21433;BME280;18592;49.708;10.900;2024-01-15T08:17:49;97267.50;;;8.86;60.93
21433;BME280;18592;49.708;10.900;2024-01-15T08:19:52;97268.63;;;8.85;60.92
21433;BME280;18592;49.708;10.900;2024-01-15T08:21:53;97262.09;;;8.86;61.27
21433;BME280;18592;49.708;10.900;2024-01-15T08:23:59;97261.25;;;8.85;61.40
21433;BME280;18592;49.708;10.900;2024-01-15T08:26:01;97263.72;;;8.87;61.20
21433;BME280;18592;49.708;10.900;2024-01-15T08:28:02;97258.28;;;8.87;61.17
21433;BME280;18592;49.708;10.900;2024-01-15T08:30:04;97262.63;;;8.88;61.41
21433;BME280;18592;49.708;10.900;2024-01-15T08:32:07;97268.06;;;8.88;61.49
21433;BME280;18592;49.708;10.900;2024-01-15T08:34:08;97273.78;;;8.91;61.50
21433;BME280;18592;49.708;10.900;2024-01-15T08:36:10;97270.78;;;8.93;62.13
21433;BME280;18592;49.708;10.900;2024-01-15T08:38:12;97257.75;;;8.95;61.66
21433;BME280;18592;49.708;10.900;2024-01-15T08:40:13;97256.41;;;8.98;61.67
21433;BME280;18592;49.708;10.900;2024-01-15T08:42:15;97256.66;;;9.01;62.03
21433;BME280;18592;49.708;10.900;2024-01-15T08:44:17;97255.03;;;9.05;61.85
21433;BME280;18592;49.708;10.900;2024-01-15T08:46:18;97258.56;;;9.06;61.64
21433;BME280;18592;49.708;10.900;2024-01-15T08:48:20;97252.84;;;9.07;62.06
21433;BME280;18592;49.708;10.900;2024-01-15T08:50:21;97249.06;;;9.08;62.24
21433;BME280;18592;49.708;10.900;2024-01-15T08:52:23;97250.66;;;9.09;61.82
21433;BME280;18592;49.708;10.900;2024-01-15T08:54:24;97241.97;;;9.12;61.90
21433;BME280;18592;49.708;10.900;2024-01-15T08:56:26;97246.59;;;9.12;61.50
21433;BME280;18592;49.708;10.900;2024-01-15T08:58:29;97243.59;;;9.13;61.57
21433;BME280;18592;49.708;10.900;2024-01-15T09:00:30;97236.25;;;9.14;61.57
21433;BME280;18592;49.708;10.900;2024-01-15T09:02:32;97237.88;;;9.15;61.84
21433;BME280;18592;49.708;10.900;2024-01-15T09:04:33;97234.63;;;9.18;62.31
21433;BME280;18592;49.708;10.900;2024-01-15T09:06:35;97232.16;;;9.21;62.42
21433;BME280;18592;49.708;10.900;2024-01-15T09:08:37;97237.59;;;9.26;62.52
21433;BME280;18592;49.708;10.900;2024-01-15T09:10:38;97228.63;;;9.31;62.42
21433;BME280;18592;49.708;10.900;2024-01-15T09:12:40;97232.13;;;9.36;62.09
21433;BME280;18592;49.708;10.900;2024-01-15T09:14:41;97225.31;;;9.39;61.80
21433;BME280;18592;49.708;10.900;2024-01-15T09:16:43;97234.28;;;9.39;61.42
21433;BME280;18592;49.708;10.900;2024-01-15T09:18:44;97247.06;;;9.39;61.19
21433;BME280;18592;49.708;10.900;2024-01-15T09:20:48;97246.00;;;9.40;61.59
21433;BME280;18592;49.708;10.900;2024-01-15T09:22:50;97238.66;;;9.40;61.33
21433;BME280;18592;49.708;10.900;2024-01-15T09:24:52;97239.72;;;9.39;60.70
21433;BME280;18592;49.708;10.900;2024-01-15T09:26:53;97240.28;;;9.41;61.13
21433;BME280;18592;49.708;10.900;2024-01-15T09:28:57;97238.66;;;9.40;61.04
21433;BME280;18592;49.708;10.900;2024-01-15T09:30:59;97234.03;;;9.41;61.13
21433;BME280;18592;49.708;10.900;2024-01-15T09:33:01;97236.19;;;9.39;59.39
21433;BME280;18592;49.708;10.900;2024-01-15T09:35:02;97233.22;;;9.35;59.15
21433;BME280;18592;49.708;10.900;2024-01-15T09:37:04;97236.78;;;9.31;59.48
21433;BME280;18592;49.708;10.900;2024-01-15T09:39:06;97240.88;;;9.28;60.18
21433;BME280;18592;49.708;10.900;2024-01-15T09:41:09;97267.22;;;9.28;60.32
21433;BME280;18592;49.708;10.900;2024-01-15T09:43:12;97266.41;;;9.27;60.53
21433;BME280;18592;49.708;10.900;2024-01-15T09:45:14;97269.66;;;9.29;60.80
21433;BME280;18592;49.708;10.900;2024-01-15T09:47:17;97269.94;;;9.33;60.83
21433;BME280;18592;49.708;10.900;2024-01-15T09:49:19;97274.56;;;9.37;61.19
21433;BME280;18592;49.708;10.900;2024-01-15T09:51:21;97271.28;;;9.40;61.17
21433;BME280;18592;49.708;10.900;2024-01-15T09:53:23;97268.56;;;9.45;61.02
21433;BME280;18592;49.708;10.900;2024-01-15T09:55:27;97253.84;;;9.46;60.94
21433;BME280;18592;49.708;10.900;2024-01-15T09:57:29;97257.13;;;9.48;61.13
21433;BME280;18592;49.708;10.900;2024-01-15T09:59:31;97250.34;;;9.51;61.52
21433;BME280;18592;49.708;10.900;2024-01-15T10:01:35;97248.69;;;9.55;60.98
21433;BME280;18592;49.708;10.900;2024-01-15T10:03:39;97250.03;;;9.57;61.26
21433;BME280;18592;49.708;10.900;2024-01-15T10:05:41;97247.03;;;9.59;61.23
21433;BME280;18592;49.708;10.900;2024-01-15T10:07:44;97230.16;;;9.62;61.08
21433;BME280;18592;49.708;10.900;2024-01-15T10:09:47;97229.88;;;9.64;61.10
21433;BME280;18592;49.708;10.900;2024-01-15T10:11:49;97242.91;;;9.67;61.60
21433;BME280;18592;49.708;10.900;2024-01-15T10:13:51;97239.66;;;9.70;61.07
21433;BME280;18592;49.708;10.900;2024-01-15T10:15:57;97239.38;;;9.71;61.08
21433;BME280;18592;49.708;10.900;2024-01-15T10:17:59;97233.66;;;9.73;61.24
21433;BME280;18592;49.708;10.900;2024-01-15T10:20:01;97230.66;;;9.74;60.94
21433;BME280;18592;49.708;10.900;2024-01-15T10:22:03;97220.31;;;9.76;61.11
21433;BME280;18592;49.708;10.900;2024-01-15T10:24:05;97219.47;;;9.81;61.47
21433;BME280;18592;49.708;10.900;2024-01-15T10:26:07;97218.63;;;9.85;61.19
21433;BME280;18592;49.708;10.900;2024-01-15T10:28:09;97215.38;;;9.88;61.32
21433;BME280;18592;49.708;10.900;2024-01-15T10:30:11;97214.00;;;9.91;61.44
21433;BME280;18592;49.708;10.900;2024-01-15T10:32:15;97208.25;;;9.92;60.86
21433;BME280;18592;49.708;10.900;2024-01-15T10:34:17;97201.75;;;9.88;59.97
21433;BME280;18592;49.708;10.900;2024-01-15T10:36:22;97197.69;;;9.86;59.40
21433;BME280;18592;49.708;10.900;2024-01-15T10:38:24;97190.59;;;9.85;60.30
21433;BME280;18592;49.708;10.900;2024-01-15T10:40:27;97194.44;;;9.84;60.01
21433;BME280;18592;49.708;10.900;2024-01-15T10:42:28;97187.06;;;9.84;59.81
21433;BME280;18592;49.708;10.900;2024-01-15T10:44:29;97184.63;;;9.83;59.92
21433;BME280;18592;49.708;10.900;2024-01-15T10:46:31;97186.53;;;9.82;59.73